createdAt,value
2022-11-08T00:00:05.582Z,1
2022-11-08T00:06:25.506Z,1
2022-11-08T00:12:48.549Z,1.1
2022-11-08T00:19:08.533Z,1.1
2022-11-08T00:25:31.597Z,1.8
2022-11-08T00:31:51.531Z,1.8
2022-11-08T00:38:14.743Z,1.1
2022-11-08T00:44:34.534Z,1.1
2022-11-08T00:50:57.505Z,1.1
2022-11-08T00:57:17.593Z,1.1
2022-11-08T01:03:40.490Z,1.2
2022-11-08T01:10:00.558Z,1.2
2022-11-08T01:16:23.534Z,1.5
2022-11-08T01:22:43.621Z,1.5
2022-11-08T01:29:06.539Z,3.1
2022-11-08T01:35:26.632Z,3.1
2022-11-08T01:41:49.555Z,2.4
2022-11-08T01:48:09.573Z,2.4
2022-11-08T01:54:32.530Z,0.6
2022-11-08T02:00:52.567Z,0.6
2022-11-08T02:07:15.511Z,0.8
2022-11-08T02:13:35.533Z,0.8
2022-11-08T02:19:58.562Z,0.5
2022-11-08T02:26:18.509Z,0.5
2022-11-08T02:32:41.646Z,2.1
2022-11-08T02:39:01.555Z,2.1
2022-11-08T02:45:24.581Z,0.9
2022-11-08T02:51:44.506Z,0.9
2022-11-08T02:58:07.528Z,1.2
2022-11-08T03:04:27.549Z,1.2
2022-11-08T03:10:50.576Z,1.3
2022-11-08T03:17:10.578Z,1.3
2022-11-08T03:23:33.542Z,2
2022-11-08T03:29:53.595Z,2
2022-11-08T03:36:16.529Z,2.3
2022-11-08T03:42:36.633Z,2.3
2022-11-08T03:48:59.539Z,1.5
2022-11-08T03:55:19.491Z,1.5
2022-11-08T04:01:42.696Z,2.2
2022-11-08T04:08:02.516Z,2.2
2022-11-08T04:14:25.578Z,1.6
2022-11-08T04:20:45.549Z,1.6
2022-11-08T04:36:56.579Z,3.4
2022-11-08T04:43:16.512Z,3.4
2022-11-08T04:49:39.601Z,3.4
2022-11-08T04:55:59.615Z,3.4
2022-11-08T05:02:22.684Z,3.4
2022-11-08T05:08:42.616Z,3.4
2022-11-08T05:15:05.514Z,1.6
2022-11-08T05:21:25.486Z,1.6
2022-11-08T05:27:48.573Z,2.2
2022-11-08T05:34:08.540Z,2.2
2022-11-08T05:40:33.443Z,3
2022-11-08T05:46:51.564Z,3
2022-11-08T05:53:14.512Z,1.6
2022-11-08T05:59:34.524Z,1.6
2022-11-08T06:05:57.526Z,1.5
2022-11-08T06:12:17.590Z,1.5
2022-11-08T06:18:40.523Z,0.8
2022-11-08T06:25:00.525Z,0.8
2022-11-08T06:31:23.617Z,2.8
2022-11-08T06:37:43.489Z,2.8
2022-11-08T06:44:06.650Z,2.7
2022-11-08T06:50:26.543Z,2.7
2022-11-08T06:56:49.568Z,2.9
2022-11-08T07:03:09.631Z,2.9
2022-11-08T07:09:32.546Z,3
2022-11-08T07:15:52.580Z,3
2022-11-08T07:22:15.544Z,2.1
2022-11-08T07:28:35.577Z,2.1
2022-11-08T07:34:58.606Z,1
2022-11-08T07:41:18.530Z,1
2022-11-08T07:47:41.598Z,1
2022-11-08T07:54:03.133Z,1
2022-11-08T08:00:24.558Z,1.5
2022-11-08T08:06:44.629Z,1.5
2022-11-08T08:13:07.555Z,2
2022-11-08T08:19:27.643Z,2
2022-11-08T08:25:50.592Z,1.9
2022-11-08T08:32:10.496Z,1.9
2022-11-08T08:38:33.540Z,1.2
2022-11-08T08:44:53.578Z,1.2
2022-11-08T08:51:16.553Z,0.4
2022-11-08T08:57:36.499Z,0.4
2022-11-08T09:03:59.654Z,1
2022-11-08T09:10:19.563Z,1
2022-11-08T09:16:42.527Z,1.2
2022-11-08T09:23:02.571Z,1.2
2022-11-08T09:29:25.539Z,2.2
2022-11-08T09:35:45.597Z,2.2
2022-11-08T09:52:31.608Z,1.7
2022-11-08T09:58:51.543Z,1.7
2022-11-08T10:05:14.482Z,1.7
2022-11-08T10:11:34.576Z,1.7
2022-11-08T10:17:57.654Z,1.2
2022-11-08T10:24:17.509Z,1.2
2022-11-08T10:30:40.584Z,0.4
2022-11-08T10:37:00.525Z,0.4
2022-11-08T10:43:23.949Z,0.5
2022-11-08T10:49:43.512Z,0.5
2022-11-08T10:56:06.720Z,1.2
2022-11-08T11:02:26.612Z,1.2
2022-11-08T11:08:49.540Z,1
2022-11-08T11:15:09.514Z,1
2022-11-08T11:21:32.494Z,0.5
2022-11-08T11:27:52.657Z,0.5
2022-11-08T11:34:15.503Z,0.6
2022-11-08T11:40:35.532Z,0.6
2022-11-08T11:46:58.781Z,0.7
2022-11-08T11:53:18.530Z,0.7
2022-11-08T11:59:41.572Z,0.6
2022-11-08T12:06:01.542Z,0.6
2022-11-08T12:12:24.644Z,0.9
2022-11-08T12:18:44.889Z,0.9
2022-11-08T12:25:07.586Z,0.3
2022-11-08T12:31:27.552Z,0.3
2022-11-08T12:37:50.498Z,0.4
2022-11-08T12:44:10.553Z,0.4
2022-11-08T12:50:33.509Z,1
2022-11-08T12:56:53.535Z,1
2022-11-08T13:03:16.562Z,0.7
2022-11-08T13:09:36.481Z,0.7
2022-11-08T13:15:59.534Z,0.9
2022-11-08T13:22:19.558Z,0.9
2022-11-08T13:28:42.837Z,1.1
2022-11-08T13:35:02.491Z,1.1
2022-11-08T13:41:25.691Z,1.4
2022-11-08T13:47:45.498Z,1.4
2022-11-08T13:54:08.499Z,1.2
2022-11-08T14:00:28.617Z,1.2
2022-11-08T14:06:51.530Z,0.9
2022-11-08T14:13:11.496Z,0.9
2022-11-08T14:19:34.546Z,0.7
2022-11-08T14:25:54.536Z,0.7
2022-11-08T14:32:17.540Z,0.8
2022-11-08T14:38:37.526Z,0.8
2022-11-08T14:45:00.556Z,0.4
2022-11-08T14:51:20.493Z,0.4
2022-11-08T15:07:30.894Z,1.4
2022-11-08T15:13:50.494Z,1.4
2022-11-08T15:20:13.530Z,1.4
2022-11-08T15:26:33.679Z,1.4
2022-11-08T15:32:56.465Z,1.6
2022-11-08T15:39:16.569Z,1.6
2022-11-08T15:45:39.565Z,2.3
2022-11-08T15:51:59.527Z,2.3
2022-11-08T15:58:22.580Z,0.3
2022-11-08T16:04:42.517Z,0.3
2022-11-08T16:11:05.501Z,0.8
2022-11-08T16:17:25.492Z,0.8
2022-11-08T16:23:48.514Z,0.6
2022-11-08T16:30:08.576Z,0.6
2022-11-08T16:36:31.492Z,0.7
2022-11-08T16:42:51.586Z,0.7
2022-11-08T16:49:14.492Z,0.7
2022-11-08T16:55:34.504Z,0.7
2022-11-08T17:01:57.767Z,0.4
2022-11-08T17:08:17.795Z,0.4
2022-11-08T17:14:40.546Z,0.5
2022-11-08T17:21:11.318Z,0.5
2022-11-08T17:27:23.511Z,1.6
2022-11-08T17:33:43.473Z,1.6
2022-11-08T17:40:06.489Z,0.3
2022-11-08T17:46:26.521Z,0.3
2022-11-08T17:52:49.501Z,0.4
2022-11-08T17:59:09.508Z,0.4
2022-11-08T18:05:32.529Z,0.9
2022-11-08T18:11:52.469Z,0.9
2022-11-08T18:18:15.545Z,0.6
2022-11-08T18:24:35.495Z,0.6
2022-11-08T18:30:58.479Z,1.3
2022-11-08T18:37:18.582Z,1.3
2022-11-08T18:43:41.474Z,0.8
2022-11-08T18:50:01.535Z,0.8
2022-11-08T18:56:24.513Z,1.3
2022-11-08T19:02:44.472Z,1.3
2022-11-08T19:09:07.509Z,1
2022-11-08T19:15:27.509Z,1
2022-11-08T19:21:50.557Z,0.2
2022-11-08T19:28:10.505Z,0.2
2022-11-08T19:34:33.596Z,1.1
2022-11-08T19:40:53.542Z,1.1
2022-11-08T19:47:16.505Z,1.1
2022-11-08T19:53:36.863Z,1.1
2022-11-08T19:59:59.565Z,1.2
2022-11-08T20:06:19.468Z,1.2
2022-11-08T20:12:42.713Z,0.9
2022-11-08T20:19:02.679Z,0.9
2022-11-08T20:34:55.396Z,1.5
2022-11-08T20:41:15.493Z,1.5
2022-11-08T20:47:38.478Z,0.8
2022-11-08T20:53:58.639Z,0.8
2022-11-08T21:00:32.994Z,1.1
2022-11-08T21:06:41.517Z,1.1
2022-11-08T21:13:04.562Z,0.6
2022-11-08T21:19:24.469Z,0.6
2022-11-08T21:25:47.544Z,0.3
2022-11-08T21:32:07.502Z,0.3
2022-11-08T21:38:30.570Z,0.6
2022-11-08T21:44:50.480Z,0.6
2022-11-08T21:51:13.486Z,0.8
2022-11-08T21:57:33.498Z,0.8
2022-11-08T22:03:56.469Z,0.9
2022-11-08T22:10:16.548Z,0.9
2022-11-08T22:16:39.498Z,0.3
2022-11-08T22:23:00.903Z,0.3
2022-11-08T22:29:22.559Z,0.3
2022-11-08T22:35:42.480Z,0.3
2022-11-08T22:42:05.529Z,0.5
2022-11-08T22:48:25.523Z,0.5
2022-11-08T22:54:48.525Z,0.8
2022-11-08T23:01:08.555Z,0.8
2022-11-08T23:24:05.519Z,1.6
2022-11-08T23:30:25.489Z,1.6
2022-11-08T23:36:48.468Z,1.6
2022-11-08T23:43:08.524Z,1.6
2022-11-08T23:49:31.517Z,1.2
2022-11-08T23:55:51.492Z,1.2
